Time;durP1;ratioP1;P1;durP2;ratioP2;P2;SDS_P1;SDS_P2;PMS_P1;PMS_P2;Temp;Humidity;BMP_temperature;BMP_pressure;BME280_temperature;BME280_humidity;BME280_pressure;Samples;Min_cycle;Max_cycle;Signal;HPM_P1;HPM_P2
2021/07/06 00:00:13;;;;;;;0.00;0.00;;;18.70;72.10;;;;;;5026831;28;20037;-82
2021/07/06 00:02:39;;;;;;;0.00;0.00;;;18.70;72.20;;;;;;5012201;28;20029;-82
2021/07/06 00:05:05;;;;;;;0.00;0.00;;;18.70;72.20;;;;;;5026773;28;20029;-83
2021/07/06 00:07:32;;;;;;;0.00;0.00;;;18.60;72.20;;;;;;5027265;28;22356;-83
2021/07/06 00:09:59;;;;;;;0.00;0.00;;;18.60;72.20;;;;;;5011035;28;20038;-84
2021/07/06 00:12:25;;;;;;;0.17;0.10;;;18.60;72.20;;;;;;5009565;28;20026;-82
2021/07/06 00:14:51;;;;;;;1.67;0.17;;;18.60;72.20;;;;;;5015613;28;20018;-83
2021/07/06 00:17:19;;;;;;;0.00;0.00;;;18.50;72.20;;;;;;5030415;28;20416;-81
2021/07/06 00:19:46;;;;;;;0.00;0.00;;;18.50;72.20;;;;;;5030325;28;20041;-82
2021/07/06 00:22:12;;;;;;;2.00;0.68;;;18.50;72.20;;;;;;5030809;28;20033;-82
2021/07/06 00:24:38;;;;;;;0.00;0.00;;;18.50;72.10;;;;;;5014801;28;20473;-83
2021/07/06 00:27:04;;;;;;;0.00;0.00;;;18.50;72.20;;;;;;5030628;28;20026;-83
2021/07/06 00:29:30;;;;;;;0.00;0.00;;;18.40;72.10;;;;;;5010834;28;20049;-83
2021/07/06 00:31:56;;;;;;;1.85;0.38;;;18.40;72.20;;;;;;5002299;28;20034;-83
2021/07/06 00:34:22;;;;;;;0.00;0.00;;;18.40;72.20;;;;;;5030284;28;20030;-83
2021/07/06 00:36:48;;;;;;;0.00;0.00;;;18.30;72.10;;;;;;5011533;28;20039;-82
2021/07/06 00:39:15;;;;;;;0.00;0.00;;;18.30;72.10;;;;;;5014174;28;20038;-82
2021/07/06 00:41:41;;;;;;;3.35;0.30;;;18.30;72.10;;;;;;5030227;28;20382;-82
2021/07/06 00:44:18;;;;;;;0.00;0.00;;;18.30;72.10;;;;;;5015109;28;20030;-84
2021/07/06 00:46:44;;;;;;;0.90;0.05;;;18.20;72.10;;;;;;5014467;28;20046;-84
2021/07/06 00:49:10;;;;;;;0.00;0.00;;;18.20;72.10;;;;;;5014156;28;20038;-83
2021/07/06 00:51:36;;;;;;;0.10;0.10;;;18.20;72.10;;;;;;5014346;28;20037;-86
2021/07/06 00:54:03;;;;;;;0.90;0.47;;;18.20;72.10;;;;;;5030156;28;20469;-83
2021/07/06 00:56:29;;;;;;;3.03;0.25;;;18.10;72.20;;;;;;5030072;28;20386;-83
2021/07/06 00:58:55;;;;;;;0.80;0.13;;;18.10;72.10;;;;;;5030186;28;20025;-83
2021/07/06 01:01:21;;;;;;;0.00;0.00;;;18.10;72.10;;;;;;5029401;28;20401;-83
2021/07/06 01:03:47;;;;;;;1.65;0.00;;;18.10;72.10;;;;;;5010947;28;20042;-85
2021/07/06 01:06:14;;;;;;;0.00;0.00;;;18.10;72.10;;;;;;4995953;28;20402;-82
2021/07/06 01:08:40;;;;;;;0.65;0.45;;;18.00;72.10;;;;;;5014541;28;20033;-85
2021/07/06 01:11:06;;;;;;;7.63;0.30;;;18.00;72.10;;;;;;5029783;28;20405;-82
2021/07/06 01:13:33;;;;;;;1.95;0.28;;;18.00;72.10;;;;;;5029905;28;22360;-83
2021/07/06 01:16:00;;;;;;;0.30;0.20;;;18.00;72.10;;;;;;5028793;28;20022;-83
2021/07/06 01:18:26;;;;;;;3.20;0.10;;;18.00;72.10;;;;;;5013026;28;20041;-81
2021/07/06 01:20:53;;;;;;;6.13;0.17;;;18.00;72.10;;;;;;5029753;28;20053;-85
2021/07/06 01:23:21;;;;;;;0.00;0.00;;;17.90;72.00;;;;;;5014350;28;20057;-85
2021/07/06 01:25:50;;;;;;;7.60;0.10;;;18.00;72.10;;;;;;5029073;28;20034;-86
2021/07/06 01:28:16;;;;;;;0.30;0.10;;;17.90;72.00;;;;;;5029401;28;20468;-81
2021/07/06 01:30:42;;;;;;;0.68;0.13;;;18.00;72.10;;;;;;5012691;28;20045;-85
2021/07/06 01:33:08;;;;;;;0.00;0.00;;;17.90;72.00;;;;;;5029397;28;20033;-86
2021/07/06 01:35:35;;;;;;;0.15;0.00;;;17.90;72.00;;;;;;5029500;28;20045;-85
2021/07/06 01:38:03;;;;;;;0.00;0.00;;;18.00;72.10;;;;;;5029735;28;20408;-84
2021/07/06 01:40:30;;;;;;;4.22;0.30;;;17.90;72.00;;;;;;5029364;28;20049;-83
2021/07/06 01:42:56;;;;;;;0.00;0.00;;;17.90;72.00;;;;;;5029910;28;20030;-85
2021/07/06 01:45:26;;;;;;;0.20;0.10;;;17.90;72.00;;;;;;5028471;28;20053;-85
2021/07/06 01:47:55;;;;;;;0.08;0.00;;;17.90;72.10;;;;;;5029080;28;20033;-84
2021/07/06 01:50:26;;;;;;;0.22;0.13;;;17.90;72.10;;;;;;5028969;28;20032;-85
2021/07/06 01:52:53;;;;;;;;;;;17.90;72.10;;;;;;5029698;28;20049;-86
2021/07/06 01:55:21;;;;;;;0.00;0.00;;;17.80;72.10;;;;;;5029273;28;19916;-85
2021/07/06 01:57:47;;;;;;;0.00;0.00;;;17.80;72.00;;;;;;5013153;28;20485;-85
2021/07/06 02:00:15;;;;;;;0.00;0.00;;;17.80;72.00;;;;;;5008194;28;20054;-86
2021/07/06 02:02:41;;;;;;;6.50;0.15;;;17.80;72.00;;;;;;5020304;28;20026;-85
2021/07/06 02:05:14;;;;;;;2.72;0.20;;;17.70;72.00;;;;;;5022748;28;20041;-84
2021/07/06 02:07:40;;;;;;;0.00;0.00;;;17.70;72.00;;;;;;5002722;28;20034;-84
2021/07/06 02:10:07;;;;;;;0.00;0.00;;;17.70;72.00;;;;;;5026574;28;20025;-85
2021/07/06 02:12:33;;;;;;;0.00;0.00;;;17.80;72.00;;;;;;4994431;28;20037;-81
2021/07/06 02:15:00;;;;;;;0.00;0.00;;;17.70;72.00;;;;;;5015767;28;20026;-84
2021/07/06 02:17:27;;;;;;;0.05;0.03;;;17.70;71.90;;;;;;4977432;28;20038;-84
2021/07/06 02:19:54;;;;;;;0.10;0.00;;;17.80;72.00;;;;;;5001121;28;20031;-85
2021/07/06 02:22:20;;;;;;;0.00;0.00;;;17.80;71.90;;;;;;4989416;28;20493;-84
2021/07/06 02:24:46;;;;;;;3.60;0.43;;;17.70;71.80;;;;;;4987819;28;20030;-85
2021/07/06 02:27:12;;;;;;;0.00;0.00;;;17.80;71.90;;;;;;4984768;28;20037;-85
2021/07/06 02:29:39;;;;;;;6.03;0.47;;;17.70;71.80;;;;;;4999440;28;20046;-84
2021/07/06 02:32:05;;;;;;;0.00;0.00;;;17.70;71.80;;;;;;4989794;28;20034;-84
2021/07/06 02:34:31;;;;;;;0.00;0.00;;;17.70;71.90;;;;;;4990876;28;20035;-81
2021/07/06 02:36:57;;;;;;;0.00;0.00;;;17.60;71.80;;;;;;5007810;28;20030;-85
2021/07/06 02:39:24;;;;;;;0.00;0.00;;;17.60;71.80;;;;;;4975248;28;20401;-85
2021/07/06 02:41:50;;;;;;;0.20;0.00;;;17.60;71.80;;;;;;4991917;28;20046;-85
2021/07/06 02:44:16;;;;;;;0.00;0.00;;;17.60;71.90;;;;;;5008046;28;20034;-85
2021/07/06 02:46:42;;;;;;;0.00;0.00;;;17.60;72.00;;;;;;5021636;28;20053;-85
2021/07/06 02:49:08;;;;;;;0.00;0.00;;;17.50;71.90;;;;;;5028091;28;20034;-85
2021/07/06 02:51:35;;;;;;;10.93;0.10;;;17.50;71.90;;;;;;5012150;28;20408;-83
2021/07/06 02:54:02;;;;;;;0.00;0.00;;;17.50;72.00;;;;;;5027869;28;20037;-85
2021/07/06 02:56:28;;;;;;;1.00;0.30;;;17.40;71.90;;;;;;5008171;28;20504;-85
2021/07/06 02:58:54;;;;;;;0.00;0.00;;;17.40;71.90;;;;;;5015665;28;20026;-85
2021/07/06 03:01:20;;;;;;;0.55;0.20;;;17.40;71.90;;;;;;5012118;28;20037;-84
2021/07/06 03:03:46;;;;;;;0.00;0.00;;;17.40;71.90;;;;;;5011975;28;20041;-85
2021/07/06 03:06:12;;;;;;;0.05;0.05;;;17.40;71.90;;;;;;5027771;28;20402;-85
2021/07/06 03:08:38;;;;;;;0.50;0.30;;;17.40;71.90;;;;;;5027729;28;20049;-85
2021/07/06 03:11:04;;;;;;;0.65;0.30;;;17.30;71.80;;;;;;5027746;28;20053;-85
2021/07/06 03:13:31;;;;;;;0.20;0.20;;;17.30;71.80;;;;;;5010340;28;20053;-85
2021/07/06 03:15:57;;;;;;;0.10;0.00;;;17.30;71.90;;;;;;5027891;28;20026;-85
2021/07/06 03:18:23;;;;;;;4.78;0.10;;;17.30;71.90;;;;;;5010863;28;20052;-84
2021/07/06 03:20:49;;;;;;;0.00;0.00;;;17.30;71.90;;;;;;5027414;28;20491;-85
2021/07/06 03:23:16;;;;;;;0.17;0.00;;;17.30;71.90;;;;;;5012475;28;20480;-86
2021/07/06 03:25:43;;;;;;;0.57;0.10;;;17.20;71.80;;;;;;5011229;28;20045;-84
2021/07/06 03:28:10;;;;;;;0.08;0.00;;;17.20;71.80;;;;;;5012509;28;20060;-86
2021/07/06 03:30:36;;;;;;;0.00;0.00;;;17.20;71.80;;;;;;4994592;28;20046;-83
2021/07/06 03:33:04;;;;;;;0.00;0.00;;;17.20;71.90;;;;;;5012229;28;20026;-83
2021/07/06 03:35:30;;;;;;;0.98;0.30;;;17.20;71.80;;;;;;5027549;28;20029;-82
2021/07/06 03:37:56;;;;;;;0.00;0.00;;;17.20;71.80;;;;;;5012132;28;20044;-83
2021/07/06 03:40:22;;;;;;;0.00;0.00;;;17.10;71.80;;;;;;5010638;28;20026;-83
2021/07/06 03:42:49;;;;;;;0.22;0.10;;;17.10;71.80;;;;;;5011183;28;20508;-83
2021/07/06 03:45:15;;;;;;;1.02;0.20;;;17.10;71.90;;;;;;5026764;28;20034;-82
2021/07/06 03:47:41;;;;;;;0.00;0.00;;;17.10;71.90;;;;;;5026587;28;20026;-83
2021/07/06 03:50:10;;;;;;;7.22;0.20;;;17.00;71.80;;;;;;5010457;28;20037;-83
2021/07/06 03:52:36;;;;;;;0.00;0.00;;;17.10;71.90;;;;;;5011598;28;20041;-83
2021/07/06 03:55:03;;;;;;;0.00;0.00;;;17.00;71.80;;;;;;5012229;28;20393;-83
2021/07/06 03:57:29;;;;;;;0.00;0.00;;;17.10;71.80;;;;;;5012134;28;20041;-84
2021/07/06 03:59:57;;;;;;;0.80;0.20;;;17.00;71.70;;;;;;5011811;28;20029;-84
2021/07/06 04:02:23;;;;;;;0.40;0.00;;;17.00;71.70;;;;;;5026566;28;20049;-83
2021/07/06 04:04:49;;;;;;;1.95;0.20;;;17.00;71.70;;;;;;5027158;28;20041;-82
2021/07/06 04:07:15;;;;;;;0.20;0.10;;;17.00;71.80;;;;;;5010614;28;20295;-82
2021/07/06 04:09:41;;;;;;;0.10;0.00;;;17.00;72.60;;;;;;5012022;28;20030;-83
2021/07/06 04:12:07;;;;;;;0.00;0.00;;;17.00;71.80;;;;;;5026989;28;20039;-83
2021/07/06 04:14:33;;;;;;;0.28;0.00;;;16.90;71.80;;;;;;5026921;28;20404;-83
2021/07/06 04:16:59;;;;;;;0.20;0.20;;;16.90;71.80;;;;;;5026513;28;20025;-83
2021/07/06 04:19:25;;;;;;;0.52;0.28;;;16.90;71.90;;;;;;5026989;28;20041;-82
2021/07/06 04:21:51;;;;;;;0.20;0.17;;;16.90;71.90;;;;;;4979054;28;20054;-83
2021/07/06 04:24:18;;;;;;;0.38;0.10;;;16.80;71.80;;;;;;5011272;28;20030;-83
2021/07/06 04:26:44;;;;;;;6.22;0.35;;;16.80;71.80;;;;;;5007088;28;20039;-83
2021/07/06 04:29:11;;;;;;;0.10;0.00;;;16.80;71.80;;;;;;5001731;28;20401;-83
2021/07/06 04:31:37;;;;;;;0.20;0.15;;;16.80;71.80;;;;;;5026590;28;20416;-84
2021/07/06 04:34:03;;;;;;;2.63;0.10;;;16.80;71.70;;;;;;5027068;28;20057;-83
2021/07/06 04:36:29;;;;;;;0.00;0.00;;;16.80;71.70;;;;;;5011893;28;20030;-82
2021/07/06 04:38:56;;;;;;;0.00;0.00;;;16.80;71.70;;;;;;5026440;28;20036;-83
2021/07/06 04:41:22;;;;;;;0.10;0.00;;;16.80;71.70;;;;;;5026572;28;20515;-83
2021/07/06 04:43:48;;;;;;;0.10;0.00;;;16.90;71.70;;;;;;5026783;28;20037;-83
2021/07/06 04:46:14;;;;;;;0.13;0.13;;;16.80;71.60;;;;;;5010014;28;20038;-83
2021/07/06 04:48:40;;;;;;;6.35;0.75;;;16.90;72.40;;;;;;5010797;28;20034;-81
2021/07/06 04:51:08;;;;;;;0.00;0.00;;;16.90;71.50;;;;;;5011562;28;20389;-83
2021/07/06 04:53:36;;;;;;;0.10;0.08;;;16.90;71.40;;;;;;5026004;28;20107;-82
2021/07/06 04:56:02;;;;;;;0.25;0.00;;;17.00;71.40;;;;;;5010329;28;20401;-82
2021/07/06 04:58:29;;;;;;;1.25;0.20;;;17.00;71.30;;;;;;5011294;28;20042;-83
2021/07/06 05:00:55;;;;;;;8.30;0.13;;;17.00;71.20;;;;;;5003420;28;20497;-85
2021/07/06 05:03:22;;;;;;;0.10;0.00;;;17.10;71.20;;;;;;4990697;28;20046;-82
2021/07/06 05:05:48;;;;;;;0.00;0.00;;;17.10;71.10;;;;;;4989376;28;20042;-82
2021/07/06 05:08:14;;;;;;;6.00;0.47;;;17.10;71.00;;;;;;4994756;28;20035;-83
2021/07/06 05:10:40;;;;;;;6.35;0.22;;;17.20;71.10;;;;;;5010298;28;20408;-83
2021/07/06 05:13:06;;;;;;;1.55;0.10;;;17.20;71.00;;;;;;5010385;28;20027;-82
2021/07/06 05:15:32;;;;;;;0.00;0.00;;;17.30;70.90;;;;;;4974208;28;20393;-83
2021/07/06 05:17:58;;;;;;;0.00;0.00;;;17.30;70.90;;;;;;4991653;28;20037;-83
2021/07/06 05:20:24;;;;;;;0.20;0.00;;;17.30;70.80;;;;;;5009987;28;20048;-81
2021/07/06 05:22:51;;;;;;;0.73;0.40;;;17.40;70.80;;;;;;4993617;28;20057;-82
2021/07/06 05:25:17;;;;;;;0.00;0.00;;;17.40;70.70;;;;;;4994905;28;20469;-83
2021/07/06 05:27:43;;;;;;;4.47;0.45;;;17.60;70.60;;;;;;4995262;28;20034;-83
2021/07/06 05:30:10;;;;;;;0.00;0.00;;;17.70;70.40;;;;;;5010051;28;20072;-84
2021/07/06 05:32:38;;;;;;;0.10;0.10;;;17.70;70.30;;;;;;5009584;28;20046;-82
2021/07/06 05:35:05;;;;;;;0.30;0.00;;;17.70;70.20;;;;;;5018469;28;20037;-83
2021/07/06 05:37:33;;;;;;;0.10;0.08;;;17.80;70.20;;;;;;5029336;28;20034;-83
2021/07/06 05:39:59;;;;;;;3.40;0.20;;;17.80;70.20;;;;;;5014487;28;20025;-82
2021/07/06 05:42:25;;;;;;;0.63;0.30;;;17.70;70.20;;;;;;5014095;28;20049;-82
2021/07/06 05:44:51;;;;;;;0.20;0.00;;;17.70;70.40;;;;;;5029304;28;20056;-82
2021/07/06 05:47:17;;;;;;;0.70;0.20;;;17.60;70.40;;;;;;5012449;28;20038;-83
2021/07/06 05:49:43;;;;;;;5.75;0.10;;;17.70;70.50;;;;;;5029237;28;20030;-83
2021/07/06 05:52:10;;;;;;;1.27;0.03;;;17.90;70.30;;;;;;5013927;28;20038;-82
2021/07/06 05:54:36;;;;;;;0.00;0.00;;;18.00;70.00;;;;;;5014232;28;20030;-82
2021/07/06 05:57:02;;;;;;;0.10;0.10;;;18.10;69.80;;;;;;5029086;28;20033;-83
2021/07/06 05:59:28;;;;;;;1.75;0.32;;;18.30;69.60;;;;;;5013714;28;20037;-84
2021/07/06 06:01:54;;;;;;;0.00;0.00;;;18.50;69.30;;;;;;5028532;28;20389;-83
2021/07/06 06:04:20;;;;;;;6.72;0.10;;;18.50;68.90;;;;;;5013732;28;20033;-82
2021/07/06 06:06:46;;;;;;;0.00;0.00;;;18.50;68.80;;;;;;5012605;28;20056;-83
2021/07/06 06:09:13;;;;;;;0.17;0.08;;;18.50;69.10;;;;;;5028657;28;20037;-83
2021/07/06 06:11:39;;;;;;;0.20;0.00;;;18.40;69.30;;;;;;5012914;28;20032;-83
2021/07/06 06:14:05;;;;;;;0.70;0.10;;;18.30;69.40;;;;;;5028879;28;20029;-84
2021/07/06 06:16:31;;;;;;;0.45;0.10;;;18.30;69.60;;;;;;5013020;28;20045;-83
2021/07/06 06:18:57;;;;;;;2.10;0.00;;;18.30;69.60;;;;;;5029259;28;20030;-83
2021/07/06 06:21:24;;;;;;;8.45;0.20;;;18.30;69.60;;;;;;5028359;28;20038;-84
2021/07/06 06:23:51;;;;;;;0.00;0.00;;;18.50;69.50;;;;;;5028498;28;20030;-83
2021/07/06 06:26:17;;;;;;;1.05;0.25;;;18.70;69.00;;;;;;5028405;28;20063;-83
2021/07/06 06:28:43;;;;;;;4.03;0.10;;;18.90;68.70;;;;;;5013330;28;20485;-83
2021/07/06 06:31:09;;;;;;;1.65;0.20;;;19.20;68.20;;;;;;5027739;28;20058;-83
2021/07/06 06:33:35;;;;;;;0.05;0.00;;;19.40;67.80;;;;;;5012382;28;20461;-83
2021/07/06 06:36:01;;;;;;;0.17;0.13;;;19.40;67.60;;;;;;5012873;28;20025;-84
2021/07/06 06:38:27;;;;;;;0.43;0.22;;;19.50;67.60;;;;;;5028179;28;20022;-83
2021/07/06 06:40:53;;;;;;;0.00;0.00;;;19.60;67.60;;;;;;5012189;28;20056;-83
2021/07/06 06:43:19;;;;;;;0.25;0.13;;;19.60;67.50;;;;;;5011879;28;20388;-83
2021/07/06 06:45:47;;;;;;;0.00;0.00;;;19.60;67.60;;;;;;5011800;28;20405;-82
2021/07/06 06:48:13;;;;;;;0.28;0.03;;;19.60;67.40;;;;;;5012777;28;20030;-83
2021/07/06 06:50:39;;;;;;;1.50;0.10;;;19.70;67.40;;;;;;5007725;28;20042;-83
2021/07/06 06:53:05;;;;;;;1.95;0.00;;;19.70;67.40;;;;;;5002328;28;20029;-82
2021/07/06 06:55:31;;;;;;;0.10;0.00;;;19.70;67.40;;;;;;5028170;28;20029;-82
2021/07/06 06:57:57;;;;;;;0.00;0.00;;;19.80;67.30;;;;;;5012225;28;20480;-83
2021/07/06 07:00:23;;;;;;;0.20;0.20;;;20.00;67.10;;;;;;5012115;28;20033;-83
2021/07/06 07:02:53;;;;;;;0.17;0.03;;;20.00;66.80;;;;;;5012628;28;20472;-83
2021/07/06 07:05:19;;;;;;;0.00;0.00;;;20.10;66.70;;;;;;5027201;28;20022;-81
2021/07/06 07:07:45;;;;;;;0.52;0.20;;;20.10;66.50;;;;;;5027734;28;20025;-84
2021/07/06 07:10:12;;;;;;;6.22;0.20;;;20.10;66.60;;;;;;5027991;28;20026;-83
2021/07/06 07:12:40;;;;;;;0.20;0.00;;;20.00;66.60;;;;;;5011643;28;20034;-82
2021/07/06 07:15:07;;;;;;;0.17;0.05;;;20.00;66.70;;;;;;5026977;28;20017;-84
2021/07/06 07:17:34;;;;;;;0.13;0.13;;;20.00;66.80;;;;;;5027372;28;20025;-84
2021/07/06 07:20:00;;;;;;;4.38;0.10;;;20.00;66.80;;;;;;5027220;28;20041;-84
2021/07/06 07:22:26;;;;;;;2.17;0.45;;;20.00;66.80;;;;;;5026773;28;20046;-82
2021/07/06 07:24:52;;;;;;;0.00;0.00;;;19.90;66.80;;;;;;4995410;28;20029;-84
2021/07/06 07:27:18;;;;;;;0.00;0.00;;;19.90;67.00;;;;;;5027273;28;20038;-83
2021/07/06 07:29:44;;;;;;;0.10;0.00;;;19.80;67.00;;;;;;5012006;28;20041;-83
2021/07/06 07:32:10;;;;;;;0.85;0.20;;;19.80;67.10;;;;;;5010213;28;20041;-79
2021/07/06 07:34:36;;;;;;;0.10;0.10;;;19.70;67.10;;;;;;5027104;28;20026;-83
2021/07/06 07:37:03;;;;;;;0.00;0.00;;;19.70;67.20;;;;;;5010922;28;20415;-83
2021/07/06 07:39:29;;;;;;;0.00;0.00;;;19.70;67.10;;;;;;4991800;28;20405;-83
2021/07/06 07:41:55;;;;;;;13.32;0.28;;;19.70;67.00;;;;;;4989460;28;20053;-83
2021/07/06 07:44:21;;;;;;;0.00;0.00;;;19.70;66.90;;;;;;5027036;28;20520;-83
2021/07/06 07:46:47;;;;;;;0.00;0.00;;;19.70;66.80;;;;;;5011635;28;20038;-83
2021/07/06 07:49:13;;;;;;;0.00;0.00;;;19.90;66.80;;;;;;5011871;28;20037;-83
2021/07/06 07:51:39;;;;;;;0.10;0.00;;;19.90;66.50;;;;;;5012583;28;20037;-82
2021/07/06 07:54:05;;;;;;;0.00;0.00;;;20.00;66.20;;;;;;5011987;28;20034;-81
2021/07/06 07:56:31;;;;;;;0.00;0.00;;;20.20;66.00;;;;;;5007147;28;20030;-83
2021/07/06 07:58:58;;;;;;;0.10;0.00;;;20.30;65.60;;;;;;5015475;28;20384;-83
2021/07/06 08:01:24;;;;;;;0.52;0.00;;;20.50;65.30;;;;;;5026581;28;20037;-83
2021/07/06 08:03:50;;;;;;;0.00;0.00;;;20.60;65.00;;;;;;4994625;28;20026;-83
2021/07/06 08:06:16;;;;;;;4.18;0.85;;;20.70;64.70;;;;;;5027052;28;20053;-83
2021/07/06 08:08:42;;;;;;;0.00;0.00;;;20.80;64.50;;;;;;5007175;28;20050;-84
2021/07/06 08:11:08;;;;;;;0.40;0.05;;;21.00;64.30;;;;;;5001545;28;20029;-84
2021/07/06 08:13:34;;;;;;;0.00;0.00;;;21.10;64.00;;;;;;5027196;28;20045;-84
2021/07/06 08:16:00;;;;;;;5.93;0.30;;;21.10;63.80;;;;;;5026861;28;20416;-84
2021/07/06 08:18:26;;;;;;;0.15;0.00;;;21.10;63.80;;;;;;5010493;28;20409;-82
2021/07/06 08:20:52;;;;;;;0.32;0.10;;;21.00;63.80;;;;;;5026889;28;20400;-84
2021/07/06 08:23:18;;;;;;;0.22;0.10;;;20.90;63.90;;;;;;5026977;28;20038;-84
2021/07/06 08:25:45;;;;;;;0.00;0.00;;;20.80;64.10;;;;;;5011691;28;20492;-84
2021/07/06 08:28:11;;;;;;;0.00;0.00;;;20.70;64.30;;;;;;5027027;28;20030;-81
2021/07/06 08:30:39;;;;;;;0.22;0.13;;;20.70;64.30;;;;;;4985610;28;20043;-82
2021/07/06 08:33:06;;;;;;;0.35;0.10;;;20.70;64.20;;;;;;4988783;28;20045;-83
2021/07/06 08:35:32;;;;;;;5.47;0.10;;;20.80;64.10;;;;;;4995665;28;20055;-83
2021/07/06 08:37:58;;;;;;;0.00;0.00;;;20.90;63.90;;;;;;5010765;28;20022;-84
2021/07/06 08:40:24;;;;;;;13.50;0.20;;;21.00;63.70;;;;;;5010744;28;20033;-84
2021/07/06 08:42:50;;;;;;;0.20;0.10;;;21.10;63.40;;;;;;4978752;28;20396;-82
2021/07/06 08:45:16;;;;;;;2.35;0.22;;;21.30;63.10;;;;;;5011394;28;20532;-83
2021/07/06 08:47:44;;;;;;;0.20;0.00;;;21.50;62.60;;;;;;5015033;28;20029;-83
2021/07/06 08:50:10;;;;;;;0.35;0.20;;;21.70;62.20;;;;;;5030177;28;20022;-84
2021/07/06 08:52:38;;;;;;;0.00;0.00;;;22.00;61.70;;;;;;5015091;28;20037;-83
2021/07/06 08:55:05;;;;;;;0.52;0.20;;;22.40;61.10;;;;;;5030544;28;20030;-84
2021/07/06 08:57:31;;;;;;;1.30;0.15;;;22.70;60.50;;;;;;5014089;28;20038;-84
2021/07/06 08:59:57;;;;;;;1.45;0.70;;;23.00;60.10;;;;;;5029876;28;20033;-83
2021/07/06 09:02:23;;;;;;;0.03;0.00;;;23.20;59.70;;;;;;5029521;28;20045;-84
2021/07/06 09:04:51;;;;;;;0.00;0.00;;;23.50;59.30;;;;;;5030128;28;20045;-84
2021/07/06 09:07:17;;;;;;;0.00;0.00;;;23.60;59.10;;;;;;5013572;28;20050;-83
2021/07/06 09:09:43;;;;;;;0.08;0.00;;;23.70;58.90;;;;;;5014067;28;20053;-83
2021/07/06 09:12:14;;;;;;;0.00;0.00;;;23.80;58.80;;;;;;5014703;28;20037;-84
2021/07/06 09:14:44;;;;;;;1.15;0.20;;;24.00;58.60;;;;;;5028975;28;20037;-84
2021/07/06 09:17:10;;;;;;;2.00;0.15;;;24.10;58.40;;;;;;5028905;28;20022;-84
2021/07/06 09:19:36;;;;;;;0.00;0.00;;;24.10;58.30;;;;;;5013391;28;20057;-83
2021/07/06 09:22:16;;;;;;;0.00;0.00;;;24.10;58.30;;;;;;5030025;28;20045;-84
2021/07/06 09:24:44;;;;;;;0.00;0.00;;;24.00;58.30;;;;;;4996314;28;20046;-84
2021/07/06 09:27:30;;;;;;;0.00;0.00;;;23.80;58.60;;;;;;5029391;28;20543;-84
2021/07/06 09:30:13;;;;;;;0.00;0.00;;;23.60;58.80;;;;;;5029064;28;20038;-83
2021/07/06 09:32:59;;;;;;;0.10;0.00;;;23.30;59.00;;;;;;5013352;28;20064;-84
2021/07/06 09:35:28;;;;;;;0.20;0.10;;;23.00;59.40;;;;;;5014061;28;20038;-84
2021/07/06 09:37:57;;;;;;;0.17;0.10;;;22.80;59.70;;;;;;5012832;28;20034;-83
2021/07/06 09:40:27;;;;;;;0.00;0.00;;;22.80;59.70;;;;;;5012727;28;20042;-83
2021/07/06 09:43:11;;;;;;;0.00;0.00;;;23.00;59.40;;;;;;5010250;28;20042;-84
2021/07/06 09:45:38;;;;;;;0.43;0.20;;;23.30;58.90;;;;;;5013004;28;20485;-85
2021/07/06 09:48:05;;;;;;;1.27;0.10;;;23.60;58.50;;;;;;5029204;28;20041;-84
2021/07/06 09:50:31;;;;;;;0.00;0.00;;;23.90;58.00;;;;;;5029140;28;20033;-84
2021/07/06 09:52:57;;;;;;;0.08;0.00;;;24.20;57.50;;;;;;5029227;28;20038;-82
2021/07/06 09:55:33;;;;;;;0.10;0.00;;;24.40;57.20;;;;;;5013915;28;20030;-84
2021/07/06 09:58:03;;;;;;;0.20;0.08;;;24.60;56.90;;;;;;5008933;28;20207;-83
2021/07/06 10:00:31;;;;;;;0.17;0.05;;;24.70;56.70;;;;;;5000587;28;20034;-84
2021/07/06 10:03:01;;;;;;;0.00;0.00;;;24.90;56.40;;;;;;5028849;28;20492;-84
2021/07/06 10:05:28;;;;;;;0.00;0.00;;;25.20;56.10;;;;;;5028859;28;20032;-81
2021/07/06 10:07:54;;;;;;;1.80;0.10;;;25.30;55.70;;;;;;5029161;28;20037;-85
2021/07/06 10:10:21;;;;;;;2.15;0.20;;;25.30;55.70;;;;;;5028833;28;20386;-84
2021/07/06 10:12:48;;;;;;;0.35;0.22;;;25.40;55.70;;;;;;5013763;28;20030;-84
2021/07/06 10:15:16;;;;;;;0.10;0.00;;;25.50;55.60;;;;;;5028058;28;20041;-85
2021/07/06 10:17:43;;;;;;;0.05;0.00;;;25.60;55.40;;;;;;5013316;28;20029;-85
2021/07/06 10:20:11;;;;;;;0.10;0.00;;;25.70;55.10;;;;;;5028503;28;20029;-85
2021/07/06 10:22:37;;;;;;;0.10;0.00;;;25.80;55.00;;;;;;5013465;28;20038;-84
2021/07/06 10:25:08;;;;;;;0.15;0.00;;;25.80;55.00;;;;;;5028729;28;20030;-84
2021/07/06 10:27:35;;;;;;;0.88;0.00;;;25.90;54.80;;;;;;5011935;28;20481;-82
2021/07/06 10:30:15;;;;;;;0.10;0.10;;;25.90;54.60;;;;;;5028274;28;20531;-84
2021/07/06 10:32:52;;;;;;;0.20;0.03;;;26.00;54.40;;;;;;5012396;28;20037;-84
2021/07/06 10:35:36;;;;;;;0.80;0.00;;;25.90;54.20;;;;;;5013105;28;20026;-84
2021/07/06 10:38:33;;;;;;;0.00;0.00;;;25.90;54.30;;;;;;5013035;28;20041;-82
2021/07/06 10:41:11;;;;;;;0.20;0.00;;;25.90;54.30;;;;;;5012998;28;20032;-85
2021/07/06 10:43:43;;;;;;;0.00;0.00;;;26.10;54.10;;;;;;5013358;28;20041;-83
2021/07/06 10:46:15;;;;;;;0.45;0.22;;;26.20;53.90;;;;;;5012782;28;20049;-84
2021/07/06 10:48:42;;;;;;;0.00;0.00;;;26.20;53.60;;;;;;5011750;28;20387;-84
2021/07/06 10:51:09;;;;;;;0.00;0.00;;;26.20;53.60;;;;;;5027977;28;20029;-84
2021/07/06 10:53:35;;;;;;;1.20;0.35;;;26.20;53.60;;;;;;5028110;28;20033;-85
2021/07/06 10:56:12;;;;;;;0.20;0.00;;;26.10;53.50;;;;;;5027544;28;20464;-84
2021/07/06 10:58:48;;;;;;;0.00;0.00;;;26.10;53.40;;;;;;4997302;28;20037;-85
2021/07/06 11:01:36;;;;;;;0.32;0.00;;;26.20;53.30;;;;;;5010649;28;20697;-83
2021/07/06 11:04:03;;;;;;;1.95;0.10;;;26.20;53.00;;;;;;5009554;28;20041;-84
2021/07/06 11:06:47;;;;;;;2.03;0.13;;;26.30;53.00;;;;;;5011677;28;20385;-83
2021/07/06 11:09:19;;;;;;;3.42;0.47;;;26.30;52.80;;;;;;5012392;28;20041;-84
2021/07/06 11:11:45;;;;;;;0.15;0.00;;;26.20;52.80;;;;;;5012137;28;20469;-84
2021/07/06 11:14:20;;;;;;;0.08;0.00;;;26.10;52.90;;;;;;5012478;28;20022;-83
2021/07/06 11:16:56;;;;;;;0.00;0.00;;;26.10;52.70;;;;;;5012001;28;20030;-84
2021/07/06 11:19:41;;;;;;;1.15;0.20;;;26.20;52.70;;;;;;5027582;28;20488;-84
2021/07/06 11:22:08;;;;;;;0.00;0.00;;;26.20;52.60;;;;;;5008687;28;20392;-83
2021/07/06 11:24:52;;;;;;;0.10;0.00;;;26.10;52.70;;;;;;5011570;28;20048;-85
2021/07/06 11:27:57;;;;;;;0.00;0.00;;;25.90;52.60;;;;;;5027444;28;20026;-86
2021/07/06 11:30:24;;;;;;;0.08;0.08;;;25.80;52.70;;;;;;5011625;28;20038;-85
2021/07/06 11:33:32;;;;;;;2.17;0.10;;;25.60;53.00;;;;;;5027330;28;20472;-85
2021/07/06 11:36:06;;;;;;;0.17;0.08;;;25.40;53.10;;;;;;5029561;28;20048;-84
2021/07/06 11:38:42;;;;;;;0.00;0.00;;;25.30;53.10;;;;;;5013586;28;20400;-85
2021/07/06 11:41:10;;;;;;;0.00;0.00;;;25.30;53.10;;;;;;4996953;28;20033;-85
2021/07/06 11:43:36;;;;;;;0.00;0.00;;;25.30;53.20;;;;;;4995309;28;20045;-83
2021/07/06 11:46:06;;;;;;;0.00;0.00;;;25.40;53.00;;;;;;4993341;28;20037;-85
2021/07/06 11:48:34;;;;;;;0.00;0.00;;;25.40;52.80;;;;;;4993298;28;20048;-84
2021/07/06 11:51:01;;;;;;;0.75;0.52;;;25.50;52.60;;;;;;5009671;28;20444;-85
2021/07/06 11:53:31;;;;;;;0.80;0.00;;;25.60;52.60;;;;;;5005622;28;20026;-84
2021/07/06 11:55:58;;;;;;;0.10;0.00;;;25.50;52.50;;;;;;5009484;28;20034;-84
2021/07/06 11:58:25;;;;;;;0.98;0.22;;;25.50;52.50;;;;;;5009542;28;20052;-86
2021/07/06 12:00:52;;;;;;;0.40;0.10;;;25.50;52.50;;;;;;4980345;28;20050;-86
2021/07/06 12:03:23;;;;;;;0.20;0.00;;;25.40;52.50;;;;;;5028629;28;20073;-84
2021/07/06 12:05:51;;;;;;;0.47;0.05;;;25.20;52.60;;;;;;5013199;28;20423;-84
2021/07/06 12:08:28;;;;;;;0.10;0.00;;;25.00;52.80;;;;;;5022430;28;20029;-84
2021/07/06 12:10:54;;;;;;;0.63;0.10;;;24.90;53.00;;;;;;4999152;28;20041;-84
2021/07/06 12:13:20;;;;;;;0.25;0.00;;;24.90;53.00;;;;;;5015917;28;20022;-84
2021/07/06 12:15:47;;;;;;;7.68;0.63;;;25.00;53.00;;;;;;5014631;28;20030;-85
2021/07/06 12:18:14;;;;;;;1.13;0.52;;;25.10;52.70;;;;;;5030685;28;20052;-84
2021/07/06 12:20:40;;;;;;;0.00;0.00;;;25.20;52.50;;;;;;5030748;28;20021;-84
2021/07/06 12:23:06;;;;;;;0.05;0.00;;;25.20;52.50;;;;;;5030509;28;20029;-84
2021/07/06 12:25:32;;;;;;;6.13;0.20;;;25.10;53.20;;;;;;5030971;28;20026;-84
2021/07/06 12:27:58;;;;;;;0.00;0.00;;;25.00;52.70;;;;;;5031359;28;20034;-83
2021/07/06 12:30:25;;;;;;;2.08;0.32;;;24.90;52.70;;;;;;4999018;28;20042;-84
2021/07/06 12:33:07;;;;;;;0.25;0.05;;;24.90;52.80;;;;;;4995782;28;20089;-83
2021/07/06 12:35:33;;;;;;;0.80;0.00;;;25.00;52.60;;;;;;4991086;28;20042;-84
2021/07/06 12:38:03;;;;;;;0.10;0.00;;;25.30;52.40;;;;;;4984231;28;20018;-85
2021/07/06 12:40:29;;;;;;;0.00;0.00;;;25.60;52.10;;;;;;4978778;28;20033;-84
2021/07/06 12:42:58;;;;;;;0.00;0.00;;;25.80;51.80;;;;;;4994499;28;20468;-84
2021/07/06 12:45:33;;;;;;;0.10;0.00;;;26.00;51.60;;;;;;5010460;28;20393;-85
2021/07/06 12:47:59;;;;;;;0.00;0.00;;;26.10;51.50;;;;;;5011077;28;20500;-89
2021/07/06 12:50:28;;;;;;;0.00;0.00;;;26.20;51.40;;;;;;5010940;28;20038;-85